^^
Meteo Knjazevac Station Historical Data
Daily Summary for May 24, 2021 Units:  English    Metric   Both
Daily Weekly Monthly Yearly Custom
  High: Low: Average:
Temperature: 74.1 °F 37.9 °F 55.8 °F
Dew Point: 51.7 °F 35.6 °F 45.1 °F
Humidity: 94% 43% 71%
Wind Speed: 13mph 0mph 3.2mph
Wind Gust: 20mph - -
Wind- - SW
Pressure: 30.21 in 30.04 in -
Precipitation: 0.00 in    
Historical Graphs
 
 
Tabular Data for May 24, 2021
Time Temperature Dew Point Pressure Wind Wind Speed Wind Gust Humidity Rainfall Rate (Hourly) solar Conditions
00:10 40.6 °F 37.6 °F 30.21 in West 2 mph 3 mph 89% 0.00 in 0 W/m2
00:20 40.3 °F 37 °F 30.21 in West 1 mph 3 mph 88% 0.00 in 0 W/m2
00:30 39.9 °F 36.9 °F 30.21 in WNW 2 mph 3 mph 89% 0.00 in 0 W/m2
00:40 39.7 °F 36.7 °F 30.21 in WNW 2 mph 3 mph 89% 0.00 in 0 W/m2
00:50 39.4 °F 36.7 °F 30.21 in West 2 mph 4 mph 90% 0.00 in 0 W/m2
01:00 39.2 °F 36.5 °F 30.20 in NW 1 mph 4 mph 90% 0.00 in 0 W/m2
01:10 39 °F 36.3 °F 30.20 in NW 1 mph 3 mph 90% 0.00 in 0 W/m2
01:20 39.2 °F 36.8 °F 30.19 in WNW 2 mph 4 mph 91% 0.00 in 0 W/m2
01:30 39.5 °F 37.1 °F 30.19 in NW 1 mph 3 mph 91% 0.00 in 0 W/m2
01:40 39.2 °F 36.5 °F 30.19 in NW 2 mph 3 mph 90% 0.00 in 0 W/m2
01:50 39 °F 36.3 °F 30.19 in NNW 1 mph 2 mph 90% 0.00 in 0 W/m2
02:00 38.8 °F 36.2 °F 30.19 in Calm   3 mph 90% 0.00 in 0 W/m2
02:10 38.5 °F 35.8 °F 30.19 in NW 1 mph 4 mph 90% 0.00 in 0 W/m2
02:20 38.3 °F 35.6 °F 30.19 in WNW 1 mph 2 mph 90% 0.00 in 0 W/m2
02:30 38.1 °F 35.7 °F 30.18 in North 2 mph 3 mph 91% 0.00 in 0 W/m2
02:40 38.1 °F 35.7 °F 30.19 in Calm   3 mph 91% 0.00 in 0 W/m2
02:50 38.1 °F 35.7 °F 30.18 in North 1 mph 2 mph 91% 0.00 in 0 W/m2
03:00 37.9 °F 36.1 °F 30.18 in North 2 mph 3 mph 93% 0.00 in 0 W/m2
03:10 38.1 °F 36.3 °F 30.18 in NW 1 mph 3 mph 93% 0.00 in 0 W/m2
03:20 38.3 °F 36.7 °F 30.18 in NNE 1 mph 3 mph 94% 0.00 in 0 W/m2
03:30 38.7 °F 36.8 °F 30.17 in ESE 1 mph 5 mph 93% 0.00 in 0 W/m2
03:40 38.3 °F 36.5 °F 30.17 in NNE 1 mph 4 mph 93% 0.00 in 0 W/m2
03:50 38.7 °F 37.1 °F 30.17 in North 1 mph 2 mph 94% 0.00 in 0 W/m2
04:00 39 °F 37.4 °F 30.17 in Calm   3 mph 94% 0.00 in 0 W/m2
04:10 39.2 °F 37.6 °F 30.17 in WNW 1 mph 3 mph 94% 0.00 in 0 W/m2
04:20 39.2 °F 37.6 °F 30.16 in WNW 1 mph 3 mph 94% 0.00 in 0 W/m2
04:30 39.6 °F 38 °F 30.16 in NW 1 mph 3 mph 94% 0.00 in 0 W/m2
04:40 39.9 °F 38.3 °F 30.16 in Calm   2 mph 94% 0.00 in 0 W/m2
04:50 39.9 °F 38.1 °F 30.16 in Calm   5 mph 93% 0.00 in 0 W/m2
05:00 40 °F 38.4 °F 30.16 in ESE 1 mph 2 mph 94% 0.00 in 0 W/m2
05:10 40.3 °F 38.7 °F 30.15 in Calm   2 mph 94% 0.00 in 0 W/m2
05:20 40.1 °F 37.7 °F 30.15 in Calm   2 mph 91% 0.00 in 0 W/m2
05:30 39.9 °F 38.1 °F 30.15 in NNW 2 mph 5 mph 93% 0.00 in 0 W/m2
05:40 39.7 °F 37.9 °F 30.15 in NNW 1 mph 3 mph 93% 0.00 in 0 W/m2
05:50 40.1 °F 38.5 °F 30.15 in North 1 mph 2 mph 94% 0.00 in 0 W/m2
06:00 40.6 °F 39 °F 30.15 in NE 1 mph 4 mph 94% 0.00 in 0 W/m2
06:10 40.4 °F 38.6 °F 30.14 in NE 1 mph 4 mph 93% 0.00 in 0 W/m2
06:20 40.3 °F 38.4 °F 30.14 in ENE 1 mph 2 mph 93% 0.00 in 2 W/m2
06:30 40.5 °F 38.6 °F 30.14 in Calm   2 mph 93% 0.00 in 5 W/m2
06:40 40.3 °F 38.4 °F 30.14 in NW 1 mph 2 mph 93% 0.00 in 13 W/m2
06:50 40.8 °F 39.2 °F 30.14 in NW 1 mph 3 mph 94% 0.00 in 24 W/m2
07:00 41.2 °F 39.6 °F 30.14 in Calm   2 mph 94% 0.00 in 37 W/m2
07:10 41.6 °F 40 °F 30.13 in West 1 mph 3 mph 94% 0.00 in 53 W/m2
07:20 42.1 °F 40.5 °F 30.14 in Calm   3 mph 94% 0.00 in 62 W/m2
07:30 42.8 °F 41.2 °F 30.14 in ESE 2 mph 3 mph 94% 0.00 in 74 W/m2
07:40 43.3 °F 41.5 °F 30.14 in Calm   3 mph 93% 0.00 in 91 W/m2
07:50 43.7 °F 41.8 °F 30.14 in Calm   2 mph 93% 0.00 in 96 W/m2
08:00 44.2 °F 42.3 °F 30.14 in Calm   2 mph 93% 0.00 in 131 W/m2
08:10 45 °F 42.5 °F 30.14 in Calm   3 mph 91% 0.00 in 192 W/m2
08:20 45.9 °F 43.1 °F 30.14 in SW 1 mph 5 mph 90% 0.00 in 176 W/m2
08:30 46.9 °F 44.2 °F 30.14 in Calm   4 mph 90% 0.00 in 216 W/m2
08:40 48.1 °F 45.3 °F 30.13 in Calm   2 mph 90% 0.00 in 238 W/m2
08:50 49.5 °F 45.5 °F 30.14 in ESE 1 mph 3 mph 86% 0.00 in 260 W/m2
09:00 50.9 °F 46.2 °F 30.14 in SSE 1 mph 5 mph 84% 0.00 in 278 W/m2
09:10 52 °F 46.7 °F 30.14 in South 1 mph 3 mph 82% 0.00 in 289 W/m2
09:20 53.3 °F 46.9 °F 30.14 in South 3 mph 8 mph 79% 0.00 in 332 W/m2
09:50 56.2 °F 47.1 °F 30.14 in SW 4 mph 11 mph 71.8% 0.00 in 414 W/m2
10:00 58 °F 47.5 °F 30.14 in SW 5 mph 9 mph 68% 0.00 in 413 W/m2
10:10 58.9 °F 47.5 °F 30.14 in SW 7 mph 12 mph 66% 0.00 in 429 W/m2
10:20 59.5 °F 47.3 °F 30.14 in SW 6 mph 12 mph 64% 0.00 in 318 W/m2
10:30 60.1 °F 47.5 °F 30.14 in SW 8 mph 14 mph 63% 0.00 in 318 W/m2
10:40 60.8 °F 46.8 °F 30.13 in SW 9 mph 15 mph 60% 0.00 in 436 W/m2
10:50 61.3 °F 46.4 °F 30.13 in SW 10 mph 17 mph 58% 0.00 in 488 W/m2
11:00 62.1 °F 47.2 °F 30.13 in SW 10 mph 17 mph 58% 0.00 in 593 W/m2
11:10 63 °F 47.5 °F 30.13 in SW 10 mph 15 mph 57% 0.00 in 613 W/m2
11:20 63.7 °F 48.2 °F 30.13 in SW 9 mph 15 mph 57% 0.00 in 542 W/m2
11:30 64.1 °F 47.6 °F 30.13 in SW 9 mph 15 mph 55% 0.00 in 579 W/m2
11:40 64.8 °F 48.3 °F 30.13 in SW 9 mph 14 mph 55% 0.00 in 704 W/m2
11:50 66.1 °F 48.4 °F 30.12 in SW 9 mph 15 mph 53% 0.00 in 709 W/m2
12:00 67.1 °F 47.8 °F 30.12 in SSW 10 mph 17 mph 50% 0.00 in 713 W/m2
12:10 67.9 °F 48.6 °F 30.12 in SSW 7 mph 17 mph 50% 0.00 in 716 W/m2
12:20 68.7 °F 48.8 °F 30.11 in SSW 6 mph 14 mph 49% 0.00 in 717 W/m2
12:30 69.4 °F 48.9 °F 30.11 in SW 9 mph 17 mph 48% 0.00 in 716 W/m2
12:40 70 °F 49.4 °F 30.10 in SW 9 mph 14 mph 48% 0.00 in 714 W/m2
12:50 70.5 °F 49.3 °F 30.10 in SW 8 mph 15 mph 47% 0.00 in 710 W/m2
13:00 70.9 °F 49.6 °F 30.09 in SW 8 mph 17 mph 47% 0.00 in 704 W/m2
13:10 71.1 °F 48.7 °F 30.09 in SW 8 mph 16 mph 45% 0.00 in 697 W/m2
13:20 71.5 °F 49 °F 30.09 in SW 9 mph 16 mph 45% 0.00 in 688 W/m2
13:30 72.1 °F 49.6 °F 30.08 in SW 7 mph 14 mph 45% 0.00 in 678 W/m2
13:40 72.3 °F 49.2 °F 30.08 in SSW 8 mph 19 mph 44% 0.00 in 666 W/m2
13:50 72.7 °F 49.5 °F 30.07 in SW 6 mph 19 mph 44% 0.00 in 653 W/m2
14:00 73.3 °F 50.1 °F 30.06 in SSW 8 mph 15 mph 44% 0.00 in 638 W/m2
14:10 73.4 °F 49.5 °F 30.06 in SSW 8 mph 17 mph 43% 0.00 in 622 W/m2
14:20 73.6 °F 50.3 °F 30.06 in SW 12 mph 16 mph 44% 0.00 in 604 W/m2
14:30 73.9 °F 50.6 °F 30.06 in WSW 8 mph 16 mph 44% 0.00 in 585 W/m2
14:40 74.1 °F 50.2 °F 30.06 in SW 13 mph 17 mph 43% 0.00 in 565 W/m2
14:50 73.9 °F 50 °F 30.05 in SW 10 mph 17 mph 43% 0.00 in 495 W/m2
15:00 73.9 °F 50.6 °F 30.05 in SW 9 mph 15 mph 44% 0.00 in 516 W/m2
15:10 73.2 °F 50.6 °F 30.05 in SW 10 mph 20 mph 45% 0.00 in 463 W/m2
15:20 73 °F 50.4 °F 30.05 in SW 10 mph 20 mph 45% 0.00 in 472 W/m2
15:30 73.2 °F 50.6 °F 30.05 in SW 9 mph 17 mph 45% 0.00 in 446 W/m2
15:40 73.5 °F 50.8 °F 30.05 in SW 7 mph 18 mph 45% 0.00 in 419 W/m2
15:50 73.6 °F 50.3 °F 30.05 in SW 9 mph 18 mph 44% 0.00 in 392 W/m2
16:00 73.6 °F 50.9 °F 30.05 in SW 8 mph 15 mph 45% 0.00 in 364 W/m2
16:10 73.9 °F 51.3 °F 30.04 in SW 8 mph 14 mph 45% 0.00 in 335 W/m2
16:20 74.1 °F 50.8 °F 30.05 in SW 7 mph 13 mph 44% 0.00 in 307 W/m2
16:30 74.1 °F 51.4 °F 30.05 in SW 6 mph 12 mph 45% 0.00 in 277 W/m2
16:40 74.1 °F 51.4 °F 30.04 in SW 6 mph 10 mph 45% 0.00 in 248 W/m2
16:50 73.7 °F 50.4 °F 30.05 in SW 6 mph 10 mph 44% 0.00 in 87 W/m2
17:00 73.1 °F 50.5 °F 30.04 in SW 5 mph 8 mph 45% 0.00 in 94 W/m2
17:10 72.6 °F 50.6 °F 30.04 in SW 6 mph 11 mph 46% 0.00 in 96 W/m2
17:20 72.3 °F 51 °F 30.05 in SW 3 mph 12 mph 47% 0.00 in 108 W/m2
17:30 72.1 °F 51.4 °F 30.05 in SSW 2 mph 6 mph 48% 0.00 in 106 W/m2
17:40 72.1 °F 51.4 °F 30.05 in South 2 mph 6 mph 48% 0.00 in 80 W/m2
17:50 71.9 °F 51.1 °F 30.05 in South 1 mph 5 mph 48% 0.00 in 50 W/m2
18:00 71.5 °F 50.8 °F 30.05 in SSE 2 mph 5 mph 48% 0.00 in 34 W/m2
18:10 71.1 °F 50.9 °F 30.05 in SSE 2 mph 6 mph 49% 0.00 in 16 W/m2
18:20 70.5 °F 51.5 °F 30.06 in SSE 1 mph 6 mph 51% 0.00 in 8 W/m2
18:30 69.6 °F 51.7 °F 30.06 in SSW 1 mph 3 mph 53% 0.00 in 0 W/m2
18:40 68.7 °F 51.4 °F 30.06 in SW 1 mph 4 mph 54% 0.00 in 0 W/m2
18:50 68 °F 50.7 °F 30.06 in SSW 2 mph 4 mph 54% 0.00 in 0 W/m2
19:00 67.3 °F 50.6 °F 30.06 in SW 1 mph 3 mph 55% 0.00 in 0 W/m2
19:10 66.5 °F 50.8 °F 30.06 in WNW 2 mph 5 mph 57% 0.00 in 0 W/m2
19:20 65.9 °F 50.7 °F 30.06 in West 1 mph 5 mph 58% 0.00 in 0 W/m2
19:30 65.2 °F 50.1 °F 30.07 in SW 1 mph 2 mph 58% 0.00 in 0 W/m2
19:40 64.3 °F 50.1 °F 30.07 in ESE 2 mph 5 mph 60% 0.00 in 0 W/m2
19:50 63.4 °F 50.2 °F 30.08 in Calm   5 mph 62% 0.00 in 0 W/m2
20:00 62.6 °F 49.8 °F 30.08 in NNE 1 mph 2 mph 63% 0.00 in 0 W/m2
20:10 61.9 °F 49.6 °F 30.08 in NNE 2 mph 3 mph 64% 0.00 in 0 W/m2
20:20 61.2 °F 49.7 °F 30.08 in NE 1 mph 5 mph 66% 0.00 in 0 W/m2
20:30 61 °F 49.9 °F 30.09 in NE 1 mph 6 mph 67% 0.00 in 0 W/m2
20:40 60.4 °F 49.8 °F 30.09 in NE 2 mph 6 mph 68% 0.00 in 0 W/m2
20:50 59.8 °F 49.6 °F 30.09 in Calm   3 mph 69% 0.00 in 0 W/m2
21:00 59.2 °F 49 °F 30.10 in Calm   2 mph 69% 0.00 in 0 W/m2
21:10 58.5 °F 48.7 °F 30.10 in Calm   1 mph 70% 0.00 in 0 W/m2
21:20 57.6 °F 48.6 °F 30.10 in Calm   2 mph 72% 0.00 in 0 W/m2
21:30 56.8 °F 48.3 °F 30.10 in Calm   2 mph 73% 0.00 in 0 W/m2
21:40 56.3 °F 48.1 °F 30.11 in North 1 mph 3 mph 74% 0.00 in 0 W/m2
21:50 55.6 °F 47.4 °F 30.11 in Calm   2 mph 74% 0.00 in 0 W/m2
22:00 54.9 °F 47.2 °F 30.11 in NW 1 mph 3 mph 75% 0.00 in 0 W/m2
22:10 54.6 °F 46.8 °F 30.11 in Calm   2 mph 75% 0.00 in 0 W/m2
22:20 54.1 °F 47.1 °F 30.11 in Calm   1 mph 77% 0.00 in 0 W/m2
22:30 53.8 °F 47.1 °F 30.12 in Calm   2 mph 78% 0.00 in 0 W/m2
22:40 53.1 °F 46.4 °F 30.12 in Calm   2 mph 78% 0.00 in 0 W/m2
22:50 52.7 °F 46.4 °F 30.12 in NW 2 mph 3 mph 79% 0.00 in 0 W/m2
23:00 52.6 °F 46.3 °F 30.12 in Calm   2 mph 79% 0.00 in 0 W/m2
23:10 52.5 °F 46.2 °F 30.12 in NW 1 mph 2 mph 79% 0.00 in 0 W/m2
23:20 52.3 °F 46.4 °F 30.12 in Calm   2 mph 80% 0.00 in 0 W/m2
23:30 52.3 °F 46.4 °F 30.13 in NW 1 mph 2 mph 80% 0.00 in 0 W/m2
23:40 52.2 °F 46.5 °F 30.13 in NW 1 mph 2 mph 81% 0.00 in 0 W/m2
23:50 52.2 °F 46.5 °F 30.13 in Calm   2 mph 81% 0.00 in 0 W/m2
Knjazevac, Serbia
Compliments of Weather Underground - 2 mb